Cmb Ariane — VRIT7 — position and weather

sailwx.info

Track history (hours):
 
Tides and Currents Weather Stations Pressure Air Temp Water Temp Dewpoint Dewpoint Depression Visibility Wind Speed Wind Dir Waves Ship Positions

Cmb Ariane

Last reported at 2016-Aug-08 06:17 UTC. Time now 2016-Aug-27 09:54 UTC.
Position N 28°22' W 018°50'.
Warning: this ship's position is 19 days out of date.

Length 180 m; draft 10.1 m.

Type: Cargo ship. MMSI: 477229600.

Date/timePositionNaut miles runAvg speedWind from/ knotsBaromVisibWave heightAir tempDewpointWater temp
2016-Aug-08 06:17N 28°22' W 018°50'810.8
2016-Aug-08 05:32N 28°29' W 018°45'1111.5
2016-Aug-08 04:33N 28°39' W 018°39'1211.9
2016-Aug-08 03:33N 28°49' W 018°32'1512.3
2016-Aug-08 02:21N 29°02' W 018°24'1012.1
2016-Aug-08 01:33N 29°10' W 018°18'2311.5
2016-Aug-07 23:31N 29°25' W 017°57'9611.8
2016-Aug-07 15:21N 30°17' W 016°24'911.4
2016-Aug-07 14:33N 30°22' W 016°15'2411.3
2016-Aug-07 12:26N 30°35' W 015°51'1011.5
2016-Aug-07 11:32N 30°40' W 015°41'1211.5
2016-Aug-07 10:31N 30°47' W 015°30'1111.4
2016-Aug-07 09:33N 30°53' W 015°19'1211.6
2016-Aug-07 08:33N 30°59' W 015°08'1211.9
2016-Aug-07 07:33N 31°05' W 014°56'1211.9
2016-Aug-07 06:33N 31°12' W 014°44'2411.8
2016-Aug-07 04:33N 31°25' W 014°21'1311.9
2016-Aug-07 03:29N 31°31' W 014°09'1111.9
2016-Aug-07 02:33N 31°38' W 013°58'1212.0
2016-Aug-07 01:33N 31°44' W 013°46'1212.1
2016-Aug-07 00:33N 31°50' W 013°34'1211.9
2016-Aug-06 23:31N 31°57' W 013°22'1211.9
2016-Aug-06 22:29N 32°03' W 013°09'1111.6
2016-Aug-06 21:32N 32°10' W 012°59'1212.0
2016-Aug-06 20:30N 32°16' W 012°46'4711.8
2016-Aug-06 16:33N 32°42' W 011°60'1212.0
2016-Aug-06 15:32N 32°48' W 011°48'1311.8
2016-Aug-06 14:27N 32°55' W 011°35'2211.7
2016-Aug-06 12:33N 33°07' W 011°12'2411.8
2016-Aug-06 10:30N 33°20' W 010°48'11611.5
2016-Aug-06 00:24N 34°23' W 008°50'18611.0
2016-Aug-05 07:33N 35°58' W 005°35'8 8.4
2016-Aug-05 06:33N 36°01' W 005°25'4 2.1
2016-Aug-05 04:31N 36°05' W 005°24'0 0.1
2016-Aug-05 03:31N 36°05' W 005°24'0 0.1
2016-Aug-05 02:28N 36°05' W 005°24'0 0.1
2016-Aug-05 01:31N 36°05' W 005°24'0 0.0
2016-Aug-05 00:31N 36°05' W 005°24'0 0.1
2016-Aug-04 23:33N 36°05' W 005°24'0 0.1
2016-Aug-04 22:30N 36°05' W 005°24'0 0.0
2016-Aug-04 21:31N 36°05' W 005°24'0 0.0
2016-Aug-04 20:31N 36°05' W 005°24'0 0.1
2016-Aug-04 19:33N 36°05' W 005°24'0 0.0
2016-Aug-04 18:34N 36°05' W 005°24'0 0.0
2016-Aug-04 17:33N 36°05' W 005°24'0 0.1
2016-Aug-04 16:34N 36°05' W 005°24'0 0.0
2016-Aug-04 15:31N 36°05' W 005°24'0 0.0
2016-Aug-04 14:31N 36°05' W 005°24'0 0.0
2016-Aug-04 13:30N 36°05' W 005°24'0 0.1
2016-Aug-04 12:33N 36°05' W 005°24'0 0.1
2016-Aug-04 11:33N 36°05' W 005°24'3 2.7
2016-Aug-04 10:33N 36°05' W 005°21'4 3.6
2016-Aug-04 09:33N 36°06' W 005°17'3 3.3
2016-Aug-04 08:33N 36°05' W 005°20'7 6.6
2016-Aug-04 07:33N 36°05' W 005°12'17610.7
2016-Aug-03 15:07N 36°31' W 001°36'4211.7
2016-Aug-03 11:33N 36°37' W 000°44'1311.7
2016-Aug-03 10:29N 36°39' W 000°29'1112.0
2016-Aug-03 09:32N 36°41' W 000°15'2311.7
2016-Aug-03 07:33N 36°44' E 000°14'1211.7
2016-Aug-03 06:33N 36°46' E 000°28'2411.8
2016-Aug-03 04:31N 36°50' E 000°58'1111.5
2016-Aug-03 03:33N 36°52' E 001°12'1111.3
2016-Aug-03 02:33N 36°53' E 001°26'1110.7
2016-Aug-03 01:33N 36°55' E 001°39'1110.9
2016-Aug-03 00:33N 36°57' E 001°52'1111.6
2016-Aug-02 23:34N 36°58' E 002°06'1211.5
2016-Aug-02 22:33N 37°00' E 002°21'1211.6
2016-Aug-02 21:33N 37°02' E 002°35'2611.7
2016-Aug-02 19:21N 37°06' E 003°07'3311.7
2016-Aug-02 16:33N 37°11' E 003°48'1211.8
2016-Aug-02 15:33N 37°14' E 004°02'2511.8
2016-Aug-02 13:25N 37°17' E 004°33'15610.3
2016-Aug-01 22:15N 36°54' E 007°46'0 0.0
2016-Jul-31 03:30N 36°54' E 007°46'0 0.0
2016-Jul-30 22:33N 36°54' E 007°46'0 0.0
2016-Jul-29 21:09N 36°54' E 007°46'0 0.0
2016-Jul-29 12:21N 36°54' E 007°46'  
Track history (hours):
 
Tides and Currents Weather Stations Pressure Air Temp Water Temp Dewpoint Dewpoint Depression Visibility Wind Speed Wind Dir Waves Ship Positions

Cmb Ariane

Last reported at 2016-Aug-08 06:17 UTC. Time now 2016-Aug-27 09:54 UTC.
Position N 28°22' W 018°50'.
Warning: this ship's position is 19 days out of date.

Length 180 m; draft 10.1 m.

Type: Cargo ship. MMSI: 477229600.

Date/timePositionNaut miles runAvg speedWind from/ knotsBaromVisibWave heightAir tempDewpointWater temp
2016-Aug-08 06:17N 28°22' W 018°50'810.8
2016-Aug-08 05:32N 28°29' W 018°45'1111.5
2016-Aug-08 04:33N 28°39' W 018°39'1211.9
2016-Aug-08 03:33N 28°49' W 018°32'1512.3
2016-Aug-08 02:21N 29°02' W 018°24'1012.1
2016-Aug-08 01:33N 29°10' W 018°18'2311.5
2016-Aug-07 23:31N 29°25' W 017°57'9611.8
2016-Aug-07 15:21N 30°17' W 016°24'911.4
2016-Aug-07 14:33N 30°22' W 016°15'2411.3
2016-Aug-07 12:26N 30°35' W 015°51'1011.5
2016-Aug-07 11:32N 30°40' W 015°41'1211.5
2016-Aug-07 10:31N 30°47' W 015°30'1111.4
2016-Aug-07 09:33N 30°53' W 015°19'1211.6
2016-Aug-07 08:33N 30°59' W 015°08'1211.9
2016-Aug-07 07:33N 31°05' W 014°56'1211.9
2016-Aug-07 06:33N 31°12' W 014°44'2411.8
2016-Aug-07 04:33N 31°25' W 014°21'1311.9
2016-Aug-07 03:29N 31°31' W 014°09'1111.9
2016-Aug-07 02:33N 31°38' W 013°58'1212.0
2016-Aug-07 01:33N 31°44' W 013°46'1212.1
2016-Aug-07 00:33N 31°50' W 013°34'1211.9
2016-Aug-06 23:31N 31°57' W 013°22'1211.9
2016-Aug-06 22:29N 32°03' W 013°09'1111.6
2016-Aug-06 21:32N 32°10' W 012°59'1212.0
2016-Aug-06 20:30N 32°16' W 012°46'4711.8
2016-Aug-06 16:33N 32°42' W 011°60'1212.0
2016-Aug-06 15:32N 32°48' W 011°48'1311.8
2016-Aug-06 14:27N 32°55' W 011°35'2211.7
2016-Aug-06 12:33N 33°07' W 011°12'2411.8
2016-Aug-06 10:30N 33°20' W 010°48'11611.5
2016-Aug-06 00:24N 34°23' W 008°50'18611.0
2016-Aug-05 07:33N 35°58' W 005°35'8 8.4
2016-Aug-05 06:33N 36°01' W 005°25'4 2.1
2016-Aug-05 04:31N 36°05' W 005°24'0 0.1
2016-Aug-05 03:31N 36°05' W 005°24'0 0.1
2016-Aug-05 02:28N 36°05' W 005°24'0 0.1
2016-Aug-05 01:31N 36°05' W 005°24'0 0.0
2016-Aug-05 00:31N 36°05' W 005°24'0 0.1
2016-Aug-04 23:33N 36°05' W 005°24'0 0.1
2016-Aug-04 22:30N 36°05' W 005°24'0 0.0
2016-Aug-04 21:31N 36°05' W 005°24'0 0.0
2016-Aug-04 20:31N 36°05' W 005°24'0 0.1
2016-Aug-04 19:33N 36°05' W 005°24'0 0.0
2016-Aug-04 18:34N 36°05' W 005°24'0 0.0
2016-Aug-04 17:33N 36°05' W 005°24'0 0.1
2016-Aug-04 16:34N 36°05' W 005°24'0 0.0
2016-Aug-04 15:31N 36°05' W 005°24'0 0.0
2016-Aug-04 14:31N 36°05' W 005°24'0 0.0
2016-Aug-04 13:30N 36°05' W 005°24'0 0.1
2016-Aug-04 12:33N 36°05' W 005°24'0 0.1
2016-Aug-04 11:33N 36°05' W 005°24'3 2.7
2016-Aug-04 10:33N 36°05' W 005°21'4 3.6
2016-Aug-04 09:33N 36°06' W 005°17'3 3.3
2016-Aug-04 08:33N 36°05' W 005°20'7 6.6
2016-Aug-04 07:33N 36°05' W 005°12'17610.7
2016-Aug-03 15:07N 36°31' W 001°36'4211.7
2016-Aug-03 11:33N 36°37' W 000°44'1311.7
2016-Aug-03 10:29N 36°39' W 000°29'1112.0
2016-Aug-03 09:32N 36°41' W 000°15'2311.7
2016-Aug-03 07:33N 36°44' E 000°14'1211.7
2016-Aug-03 06:33N 36°46' E 000°28'2411.8
2016-Aug-03 04:31N 36°50' E 000°58'1111.5
2016-Aug-03 03:33N 36°52' E 001°12'1111.3
2016-Aug-03 02:33N 36°53' E 001°26'1110.7
2016-Aug-03 01:33N 36°55' E 001°39'1110.9
2016-Aug-03 00:33N 36°57' E 001°52'1111.6
2016-Aug-02 23:34N 36°58' E 002°06'1211.5
2016-Aug-02 22:33N 37°00' E 002°21'1211.6
2016-Aug-02 21:33N 37°02' E 002°35'2611.7
2016-Aug-02 19:21N 37°06' E 003°07'3311.7
2016-Aug-02 16:33N 37°11' E 003°48'1211.8
2016-Aug-02 15:33N 37°14' E 004°02'2511.8
2016-Aug-02 13:25N 37°17' E 004°33'15610.3
2016-Aug-01 22:15N 36°54' E 007°46'0 0.0
2016-Jul-31 03:30N 36°54' E 007°46'0 0.0
2016-Jul-30 22:33N 36°54' E 007°46'0 0.0
2016-Jul-29 21:09N 36°54' E 007°46'0 0.0
2016-Jul-29 12:21N 36°54' E 007°46'  

Dump ship's entire track history